sensor_id;sensor_type;location;lat;lon;timestamp;pressure;altitude;pressure_sealevel;temperature;humidity
34297;BME280;20564;42.902;25.336;2023-03-25T00:01:16;96795.50;;;5.70;100.00
34297;BME280;20564;42.902;25.336;2023-03-25T00:04:16;96788.88;;;5.66;100.00
34297;BME280;20564;42.902;25.336;2023-03-25T00:07:16;96782.00;;;5.65;100.00
34297;BME280;20564;42.902;25.336;2023-03-25T00:09:55;96772.03;;;5.59;100.00
34297;BME280;20564;42.902;25.336;2023-03-25T00:12:55;96784.72;;;5.63;100.00
34297;BME280;20564;42.902;25.336;2023-03-25T00:16:35;96781.41;;;5.61;100.00
34297;BME280;20564;42.902;25.336;2023-03-25T00:19:09;96780.09;;;5.67;100.00
34297;BME280;20564;42.902;25.336;2023-03-25T00:25:14;96775.81;;;5.54;100.00
34297;BME280;20564;42.902;25.336;2023-03-25T00:31:26;96772.16;;;5.46;100.00
34297;BME280;20564;42.902;25.336;2023-03-25T00:37:13;96771.78;;;5.39;100.00
34297;BME280;20564;42.902;25.336;2023-03-25T00:40:11;96775.34;;;5.38;100.00
34297;BME280;20564;42.902;25.336;2023-03-25T00:43:14;96768.00;;;5.32;100.00
34297;BME280;20564;42.902;25.336;2023-03-25T00:45:54;96762.03;;;5.30;100.00
34297;BME280;20564;42.902;25.336;2023-03-25T00:48:43;96758.97;;;5.25;100.00
34297;BME280;20564;42.902;25.336;2023-03-25T00:51:36;96767.53;;;5.27;100.00
34297;BME280;20564;42.902;25.336;2023-03-25T00:54:26;96772.97;;;5.24;100.00
34297;BME280;20564;42.902;25.336;2023-03-25T00:57:21;96765.75;;;5.16;100.00
34297;BME280;20564;42.902;25.336;2023-03-25T00:59:52;96760.28;;;5.19;100.00
34297;BME280;20564;42.902;25.336;2023-03-25T01:02:35;96767.53;;;5.27;100.00
34297;BME280;20564;42.902;25.336;2023-03-25T01:05:20;96748.91;;;5.20;100.00
34297;BME280;20564;42.902;25.336;2023-03-25T01:07:54;96744.28;;;5.13;100.00
34297;BME280;20564;42.902;25.336;2023-03-25T01:10:41;96754.94;;;5.10;100.00
34297;BME280;20564;42.902;25.336;2023-03-25T01:13:09;96754.47;;;5.16;100.00
34297;BME280;20564;42.902;25.336;2023-03-25T01:15:38;96758.16;;;5.24;100.00
34297;BME280;20564;42.902;25.336;2023-03-25T01:18:07;96749.50;;;5.13;100.00
34297;BME280;20564;42.902;25.336;2023-03-25T01:20:41;96743.19;;;5.15;100.00
34297;BME280;20564;42.902;25.336;2023-03-25T01:23:28;96744.13;;;5.03;100.00
34297;BME280;20564;42.902;25.336;2023-03-25T01:26:02;96738.44;;;4.98;100.00
34297;BME280;20564;42.902;25.336;2023-03-25T01:28:36;96735.00;;;4.97;100.00
34297;BME280;20564;42.902;25.336;2023-03-25T01:31:09;96734.41;;;4.94;100.00
34297;BME280;20564;42.902;25.336;2023-03-25T01:33:56;96731.44;;;4.98;100.00
34297;BME280;20564;42.902;25.336;2023-03-25T01:36:34;96720.53;;;4.93;100.00
34297;BME280;20564;42.902;25.336;2023-03-25T01:39:09;96717.69;;;4.96;100.00
34297;BME280;20564;42.902;25.336;2023-03-25T01:41:42;96714.16;;;4.97;100.00
34297;BME280;20564;42.902;25.336;2023-03-25T01:46:57;96713.56;;;4.94;100.00
34297;BME280;20564;42.902;25.336;2023-03-25T01:49:41;96708.78;;;4.88;100.00
34297;BME280;20564;42.902;25.336;2023-03-25T01:52:17;96708.19;;;4.84;100.00
34297;BME280;20564;42.902;25.336;2023-03-25T01:54:45;96707.00;;;4.77;100.00
34297;BME280;20564;42.902;25.336;2023-03-25T01:57:19;96710.28;;;4.68;100.00
34297;BME280;20564;42.902;25.336;2023-03-25T02:00:07;96711.84;;;4.70;100.00
34297;BME280;20564;42.902;25.336;2023-03-25T02:02:44;96714.34;;;4.72;100.00
34297;BME280;20564;42.902;25.336;2023-03-25T02:05:29;96714.09;;;4.75;100.00
34297;BME280;20564;42.902;25.336;2023-03-25T02:08:01;96706.53;;;4.72;100.00
34297;BME280;20564;42.902;25.336;2023-03-25T02:11:02;96705.09;;;4.79;100.00
34297;BME280;20564;42.902;25.336;2023-03-25T02:13:34;96697.63;;;4.74;100.00
34297;BME280;20564;42.902;25.336;2023-03-25T02:16:15;96697.03;;;4.71;100.00
34297;BME280;20564;42.902;25.336;2023-03-25T02:22:45;96704.44;;;4.53;100.00
34297;BME280;20564;42.902;25.336;2023-03-25T02:41:21;96704.31;;;4.43;100.00
34297;BME280;20564;42.902;25.336;2023-03-25T02:44:06;96694.34;;;4.37;100.00
34297;BME280;20564;42.902;25.336;2023-03-25T02:46:40;96696.13;;;4.37;100.00
34297;BME280;20564;42.902;25.336;2023-03-25T02:49:26;96679.91;;;4.33;100.00
34297;BME280;20564;42.902;25.336;2023-03-25T02:55:07;96677.28;;;4.33;100.00
34297;BME280;20564;42.902;25.336;2023-03-25T02:57:49;96682.28;;;4.36;100.00
34297;BME280;20564;42.902;25.336;2023-03-25T03:00:28;96680.34;;;4.27;100.00
34297;BME280;20564;42.902;25.336;2023-03-25T03:03:00;96674.22;;;4.28;100.00
34297;BME280;20564;42.902;25.336;2023-03-25T03:05:33;96674.22;;;4.28;100.00
34297;BME280;20564;42.902;25.336;2023-03-25T03:14:18;96678.31;;;4.19;100.00
34297;BME280;20564;42.902;25.336;2023-03-25T03:17:02;96678.88;;;4.11;100.00
34297;BME280;20564;42.902;25.336;2023-03-25T03:20:00;96675.94;;;4.16;100.00
34297;BME280;20564;42.902;25.336;2023-03-25T03:22:57;96674.06;;;4.18;100.00
34297;BME280;20564;42.902;25.336;2023-03-25T03:25:55;96676.28;;;4.11;100.00
34297;BME280;20564;42.902;25.336;2023-03-25T03:32:08;96676.97;;;4.02;100.00
34297;BME280;20564;42.902;25.336;2023-03-25T03:34:58;96675.63;;;3.97;100.00
34297;BME280;20564;42.902;25.336;2023-03-25T03:37:38;96673.16;;;3.95;100.00
34297;BME280;20564;42.902;25.336;2023-03-25T03:40:28;96670.03;;;3.90;100.00
34297;BME280;20564;42.902;25.336;2023-03-25T03:43:22;96672.63;;;3.90;100.00
34297;BME280;20564;42.902;25.336;2023-03-25T03:46:07;96668.97;;;3.93;100.00
34297;BME280;20564;42.902;25.336;2023-03-25T03:48:55;96669.59;;;3.96;100.00
34297;BME280;20564;42.902;25.336;2023-03-25T03:54:25;96665.03;;;3.87;100.00
34297;BME280;20564;42.902;25.336;2023-03-25T03:59:40;96651.31;;;3.85;100.00
34297;BME280;20564;42.902;25.336;2023-03-25T04:02:44;96651.31;;;3.85;100.00
34297;BME280;20564;42.902;25.336;2023-03-25T04:05:16;96649.38;;;3.76;100.00
34297;BME280;20564;42.902;25.336;2023-03-25T04:07:57;96659.06;;;3.74;100.00
34297;BME280;20564;42.902;25.336;2023-03-25T04:10:41;96657.75;;;3.68;100.00
34297;BME280;20564;42.902;25.336;2023-03-25T04:13:14;96668.28;;;3.67;100.00
34297;BME280;20564;42.902;25.336;2023-03-25T04:15:43;96666.84;;;3.62;100.00
34297;BME280;20564;42.902;25.336;2023-03-25T04:18:12;96668.97;;;3.69;100.00
34297;BME280;20564;42.902;25.336;2023-03-25T04:20:43;96672.19;;;3.72;100.00
34297;BME280;20564;42.902;25.336;2023-03-25T04:23:15;96672.78;;;3.76;100.00
34297;BME280;20564;42.902;25.336;2023-03-25T04:25:42;96674.69;;;3.74;100.00
34297;BME280;20564;42.902;25.336;2023-03-25T04:28:13;96673.25;;;3.70;100.00
34297;BME280;20564;42.902;25.336;2023-03-25T04:30:43;96664.50;;;3.71;100.00
34297;BME280;20564;42.902;25.336;2023-03-25T04:33:14;96666.97;;;3.72;100.00
34297;BME280;20564;42.902;25.336;2023-03-25T04:35:41;96669.72;;;3.71;100.00
34297;BME280;20564;42.902;25.336;2023-03-25T04:38:08;96676.69;;;3.70;100.00
34297;BME280;20564;42.902;25.336;2023-03-25T04:40:35;96683.72;;;3.81;100.00
34297;BME280;20564;42.902;25.336;2023-03-25T04:43:06;96687.03;;;3.83;100.00
34297;BME280;20564;42.902;25.336;2023-03-25T04:45:33;96687.53;;;3.88;100.00
34297;BME280;20564;42.902;25.336;2023-03-25T04:48:02;96686.69;;;3.87;100.00
34297;BME280;20564;42.902;25.336;2023-03-25T04:50:35;96688.97;;;3.92;100.00
34297;BME280;20564;42.902;25.336;2023-03-25T04:53:03;96697.06;;;4.00;100.00
34297;BME280;20564;42.902;25.336;2023-03-25T04:55:33;96689.28;;;4.11;100.00
34297;BME280;20564;42.902;25.336;2023-03-25T04:58:04;96689.06;;;4.15;100.00
34297;BME280;20564;42.902;25.336;2023-03-25T05:00:33;96695.38;;;4.23;100.00
34297;BME280;20564;42.902;25.336;2023-03-25T05:03:01;96690.78;;;4.38;100.00
34297;BME280;20564;42.902;25.336;2023-03-25T05:05:38;96686.78;;;4.45;100.00
34297;BME280;20564;42.902;25.336;2023-03-25T05:08:11;96691.31;;;4.54;100.00
34297;BME280;20564;42.902;25.336;2023-03-25T05:10:41;96679.13;;;4.66;100.00
34297;BME280;20564;42.902;25.336;2023-03-25T05:13:10;96693.00;;;4.78;100.00
34297;BME280;20564;42.902;25.336;2023-03-25T05:15:41;96693.38;;;4.84;100.00
34297;BME280;20564;42.902;25.336;2023-03-25T05:18:19;96690.31;;;5.02;100.00
34297;BME280;20564;42.902;25.336;2023-03-25T05:20:48;96696.81;;;5.19;100.00
34297;BME280;20564;42.902;25.336;2023-03-25T05:23:19;96696.56;;;5.33;100.00
34297;BME280;20564;42.902;25.336;2023-03-25T05:25:51;96693.03;;;5.45;100.00
34297;BME280;20564;42.902;25.336;2023-03-25T05:28:29;96696.44;;;5.57;100.00
34297;BME280;20564;42.902;25.336;2023-03-25T05:31:00;96694.84;;;5.77;100.00
34297;BME280;20564;42.902;25.336;2023-03-25T05:33:35;96695.53;;;6.01;100.00
34297;BME280;20564;42.902;25.336;2023-03-25T05:36:20;96694.38;;;6.26;100.00
34297;BME280;20564;42.902;25.336;2023-03-25T05:38:52;96695.66;;;6.53;100.00
34297;BME280;20564;42.902;25.336;2023-03-25T05:41:33;96688.00;;;6.82;100.00
34297;BME280;20564;42.902;25.336;2023-03-25T05:44:05;96685.38;;;7.13;100.00
34297;BME280;20564;42.902;25.336;2023-03-25T05:46:32;96686.75;;;7.47;99.93
34297;BME280;20564;42.902;25.336;2023-03-25T05:49:00;96689.31;;;7.78;96.08
34297;BME280;20564;42.902;25.336;2023-03-25T05:51:32;96682.84;;;8.11;93.87
34297;BME280;20564;42.902;25.336;2023-03-25T05:54:16;96684.41;;;8.53;90.42
34297;BME280;20564;42.902;25.336;2023-03-25T05:56:46;96678.69;;;8.86;86.87
34297;BME280;20564;42.902;25.336;2023-03-25T05:59:14;96681.19;;;9.25;83.10
34297;BME280;20564;42.902;25.336;2023-03-25T06:01:42;96686.31;;;9.54;82.47
34297;BME280;20564;42.902;25.336;2023-03-25T06:04:12;96687.50;;;9.87;80.48
34297;BME280;20564;42.902;25.336;2023-03-25T06:06:43;96679.25;;;10.18;79.96
34297;BME280;20564;42.902;25.336;2023-03-25T06:09:10;96676.88;;;10.43;79.09
34297;BME280;20564;42.902;25.336;2023-03-25T06:11:38;96673.53;;;10.76;76.71
34297;BME280;20564;42.902;25.336;2023-03-25T06:14:12;96669.28;;;11.09;75.52
34297;BME280;20564;42.902;25.336;2023-03-25T06:16:39;96675.00;;;11.31;75.10
34297;BME280;20564;42.902;25.336;2023-03-25T06:19:07;96673.63;;;11.61;71.86
34297;BME280;20564;42.902;25.336;2023-03-25T06:21:34;96675.72;;;11.92;70.24
34297;BME280;20564;42.902;25.336;2023-03-25T06:24:02;96672.19;;;12.25;68.61
34297;BME280;20564;42.902;25.336;2023-03-25T06:26:29;96666.91;;;12.50;67.47
34297;BME280;20564;42.902;25.336;2023-03-25T06:28:56;96661.13;;;12.79;64.10
34297;BME280;20564;42.902;25.336;2023-03-25T06:31:26;96669.81;;;13.04;62.34
34297;BME280;20564;42.902;25.336;2023-03-25T06:33:54;96671.94;;;13.33;60.67
34297;BME280;20564;42.902;25.336;2023-03-25T06:36:22;96662.75;;;13.60;60.28
34297;BME280;20564;42.902;25.336;2023-03-25T06:38:52;96668.56;;;13.87;58.84
34297;BME280;20564;42.902;25.336;2023-03-25T06:41:20;96663.72;;;14.21;59.87
34297;BME280;20564;42.902;25.336;2023-03-25T06:43:47;96670.19;;;14.50;56.63
34297;BME280;20564;42.902;25.336;2023-03-25T06:46:15;96667.09;;;14.61;56.35
34297;BME280;20564;42.902;25.336;2023-03-25T06:48:43;96666.97;;;14.78;55.97
34297;BME280;20564;42.902;25.336;2023-03-25T06:51:10;96664.91;;;15.03;55.92
34297;BME280;20564;42.902;25.336;2023-03-25T06:53:37;96666.13;;;15.30;54.79
34297;BME280;20564;42.902;25.336;2023-03-25T06:56:05;96667.28;;;15.57;54.38
34297;BME280;20564;42.902;25.336;2023-03-25T06:58:32;96668.03;;;15.80;53.51
34297;BME280;20564;42.902;25.336;2023-03-25T07:01:02;96665.13;;;16.11;51.38
34297;BME280;20564;42.902;25.336;2023-03-25T07:03:34;96667.88;;;16.39;50.59
34297;BME280;20564;42.902;25.336;2023-03-25T07:06:05;96663.44;;;16.47;49.73
34297;BME280;20564;42.902;25.336;2023-03-25T07:08:33;96660.72;;;16.61;50.81
34297;BME280;20564;42.902;25.336;2023-03-25T07:11:02;96661.59;;;16.90;48.94
34297;BME280;20564;42.902;25.336;2023-03-25T07:13:29;96655.00;;;17.14;47.75
34297;BME280;20564;42.902;25.336;2023-03-25T07:16:00;96652.59;;;17.19;47.41
34297;BME280;20564;42.902;25.336;2023-03-25T07:18:27;96646.97;;;17.35;46.67
34297;BME280;20564;42.902;25.336;2023-03-25T07:20:54;96649.06;;;17.47;46.12
34297;BME280;20564;42.902;25.336;2023-03-25T07:23:24;96648.13;;;17.61;43.32
34297;BME280;20564;42.902;25.336;2023-03-25T07:25:51;96643.47;;;17.70;44.41
34297;BME280;20564;42.902;25.336;2023-03-25T07:28:19;96642.56;;;17.97;45.40
34297;BME280;20564;42.902;25.336;2023-03-25T07:30:48;96650.84;;;18.29;43.73
34297;BME280;20564;42.902;25.336;2023-03-25T07:33:15;96643.50;;;18.64;43.61
34297;BME280;20564;42.902;25.336;2023-03-25T07:35:43;96633.91;;;18.83;40.94
34297;BME280;20564;42.902;25.336;2023-03-25T07:38:10;96641.88;;;18.90;40.88
34297;BME280;20564;42.902;25.336;2023-03-25T07:40:37;96638.41;;;19.02;40.86
34297;BME280;20564;42.902;25.336;2023-03-25T07:43:04;96636.72;;;19.21;39.93
34297;BME280;20564;42.902;25.336;2023-03-25T07:45:31;96636.91;;;19.40;38.74
34297;BME280;20564;42.902;25.336;2023-03-25T07:48:21;96641.59;;;19.44;39.10
34297;BME280;20564;42.902;25.336;2023-03-25T07:50:51;96648.59;;;19.45;38.95
34297;BME280;20564;42.902;25.336;2023-03-25T07:53:18;96638.91;;;19.71;39.18
34297;BME280;20564;42.902;25.336;2023-03-25T07:55:45;96645.63;;;19.80;38.85
34297;BME280;20564;42.902;25.336;2023-03-25T07:58:12;96632.94;;;19.69;38.51
34297;BME280;20564;42.902;25.336;2023-03-25T08:00:39;96640.44;;;19.85;39.31
34297;BME280;20564;42.902;25.336;2023-03-25T08:03:06;96643.47;;;20.02;38.95
34297;BME280;20564;42.902;25.336;2023-03-25T08:05:33;96640.50;;;20.17;37.82
34297;BME280;20564;42.902;25.336;2023-03-25T08:08:04;96644.59;;;20.26;38.69
34297;BME280;20564;42.902;25.336;2023-03-25T08:10:32;96642.47;;;20.35;38.44
34297;BME280;20564;42.902;25.336;2023-03-25T08:13:00;96639.97;;;20.40;37.27
34297;BME280;20564;42.902;25.336;2023-03-25T08:15:29;96632.31;;;20.43;37.95
34297;BME280;20564;42.902;25.336;2023-03-25T08:17:56;96634.38;;;20.48;37.42
34297;BME280;20564;42.902;25.336;2023-03-25T08:20:23;96642.34;;;20.55;38.02
34297;BME280;20564;42.902;25.336;2023-03-25T08:22:50;96634.47;;;20.66;37.78
34297;BME280;20564;42.902;25.336;2023-03-25T08:25:23;96633.72;;;20.84;37.35
34297;BME280;20564;42.902;25.336;2023-03-25T08:27:53;96625.88;;;21.08;36.23
34297;BME280;20564;42.902;25.336;2023-03-25T08:30:21;96630.97;;;20.91;36.18
34297;BME280;20564;42.902;25.336;2023-03-25T08:32:51;96637.47;;;21.02;36.50
34297;BME280;20564;42.902;25.336;2023-03-25T08:35:27;96626.00;;;20.94;35.92
34297;BME280;20564;42.902;25.336;2023-03-25T08:37:55;96637.47;;;21.02;35.64
34297;BME280;20564;42.902;25.336;2023-03-25T08:40:26;96629.59;;;21.07;35.33
34297;BME280;20564;42.902;25.336;2023-03-25T08:42:53;96628.84;;;21.00;35.50
34297;BME280;20564;42.902;25.336;2023-03-25T08:45:21;96623.06;;;21.03;35.03
34297;BME280;20564;42.902;25.336;2023-03-25T08:47:48;96629.38;;;21.08;35.43
34297;BME280;20564;42.902;25.336;2023-03-25T08:50:16;96612.66;;;21.13;35.69
34297;BME280;20564;42.902;25.336;2023-03-25T08:52:43;96616.97;;;21.14;34.81
34297;BME280;20564;42.902;25.336;2023-03-25T08:55:12;96616.38;;;21.12;36.83
34297;BME280;20564;42.902;25.336;2023-03-25T08:57:41;96615.44;;;21.25;35.44
34297;BME280;20564;42.902;25.336;2023-03-25T09:00:09;96619.47;;;21.34;36.04
34297;BME280;20564;42.902;25.336;2023-03-25T09:02:40;96618.75;;;21.20;35.58
34297;BME280;20564;42.902;25.336;2023-03-25T09:05:09;96619.56;;;21.20;35.20
34297;BME280;20564;42.902;25.336;2023-03-25T09:07:41;96610.72;;;21.20;35.41
34297;BME280;20564;42.902;25.336;2023-03-25T09:10:09;96614.59;;;21.24;35.07
34297;BME280;20564;42.902;25.336;2023-03-25T09:12:39;96617.28;;;21.24;35.06
34297;BME280;20564;42.902;25.336;2023-03-25T09:15:10;96613.69;;;21.12;35.14
34297;BME280;20564;42.902;25.336;2023-03-25T09:17:39;96602.59;;;20.90;35.87
34297;BME280;20564;42.902;25.336;2023-03-25T09:20:07;96601.50;;;21.16;36.13
34297;BME280;20564;42.902;25.336;2023-03-25T09:22:49;96610.84;;;21.32;35.90
34297;BME280;20564;42.902;25.336;2023-03-25T09:25:17;96607.94;;;21.33;35.60
34297;BME280;20564;42.902;25.336;2023-03-25T09:27:46;96601.25;;;21.42;35.64
34297;BME280;20564;42.902;25.336;2023-03-25T09:30:17;96601.41;;;21.48;35.30
34297;BME280;20564;42.902;25.336;2023-03-25T09:32:51;96596.25;;;21.64;35.71
34297;BME280;20564;42.902;25.336;2023-03-25T09:35:21;96594.56;;;21.52;34.82
34297;BME280;20564;42.902;25.336;2023-03-25T09:37:57;96592.56;;;21.47;35.75
34297;BME280;20564;42.902;25.336;2023-03-25T09:40:25;96596.81;;;21.36;35.11
34297;BME280;20564;42.902;25.336;2023-03-25T09:45:48;96593.22;;;21.42;36.36
34297;BME280;20564;42.902;25.336;2023-03-25T09:48:26;96590.25;;;21.69;36.21
34297;BME280;20564;42.902;25.336;2023-03-25T09:51:05;96590.34;;;21.92;35.47
34297;BME280;20564;42.902;25.336;2023-03-25T09:53:42;96581.72;;;21.90;35.25
34297;BME280;20564;42.902;25.336;2023-03-25T09:56:17;96590.25;;;21.99;35.40
34297;BME280;20564;42.902;25.336;2023-03-25T09:58:49;96589.91;;;21.96;35.33
34297;BME280;20564;42.902;25.336;2023-03-25T10:02:01;96579.78;;;21.98;35.23
34297;BME280;20564;42.902;25.336;2023-03-25T10:10:35;96564.59;;;22.22;35.01
34297;BME280;20564;42.902;25.336;2023-03-25T10:24:47;96547.28;;;22.48;34.87
34297;BME280;20564;42.902;25.336;2023-03-25T10:27:43;96530.38;;;22.59;35.03
34297;BME280;20564;42.902;25.336;2023-03-25T10:33:28;96526.88;;;23.17;34.60
34297;BME280;20564;42.902;25.336;2023-03-25T10:36:05;96526.28;;;23.27;34.68
34297;BME280;20564;42.902;25.336;2023-03-25T10:38:35;96524.66;;;23.26;34.18
34297;BME280;20564;42.902;25.336;2023-03-25T10:41:31;96510.78;;;23.17;33.51
34297;BME280;20564;42.902;25.336;2023-03-25T10:44:08;96503.88;;;23.21;34.19
34297;BME280;20564;42.902;25.336;2023-03-25T10:49:16;96504.38;;;23.18;34.03
34297;BME280;20564;42.902;25.336;2023-03-25T10:51:46;96500.34;;;23.32;34.28
34297;BME280;20564;42.902;25.336;2023-03-25T10:54:15;96492.78;;;23.29;33.88
34297;BME280;20564;42.902;25.336;2023-03-25T10:56:54;96493.72;;;23.23;33.70
34297;BME280;20564;42.902;25.336;2023-03-25T10:59:35;96491.94;;;23.29;33.77
34297;BME280;20564;42.902;25.336;2023-03-25T11:02:12;96493.66;;;23.47;33.72
34297;BME280;20564;42.902;25.336;2023-03-25T11:04:42;96486.34;;;23.30;33.80
34297;BME280;20564;42.902;25.336;2023-03-25T11:07:24;96484.88;;;23.23;33.07
34297;BME280;20564;42.902;25.336;2023-03-25T11:09:53;96487.88;;;23.26;34.49
34297;BME280;20564;42.902;25.336;2023-03-25T11:12:21;96481.72;;;23.26;33.52
34297;BME280;20564;42.902;25.336;2023-03-25T11:15:13;96487.72;;;22.93;33.46
34297;BME280;20564;42.902;25.336;2023-03-25T11:17:42;96481.06;;;22.72;33.82
34297;BME280;20564;42.902;25.336;2023-03-25T11:20:34;96491.44;;;22.68;34.56
34297;BME280;20564;42.902;25.336;2023-03-25T11:23:31;96478.97;;;22.85;34.13
34297;BME280;20564;42.902;25.336;2023-03-25T11:26:06;96481.75;;;23.02;34.47
34297;BME280;20564;42.902;25.336;2023-03-25T11:28:38;96469.59;;;23.12;33.38
34297;BME280;20564;42.902;25.336;2023-03-25T11:33:46;96467.09;;;23.33;31.37
34297;BME280;20564;42.902;25.336;2023-03-25T11:36:28;96460.91;;;23.21;32.32
34297;BME280;20564;42.902;25.336;2023-03-25T11:38:59;96455.94;;;23.13;32.42
34297;BME280;20564;42.902;25.336;2023-03-25T11:41:29;96462.56;;;23.22;34.21
34297;BME280;20564;42.902;25.336;2023-03-25T11:43:58;96463.59;;;23.21;32.38
34297;BME280;20564;42.902;25.336;2023-03-25T11:46:25;96462.88;;;22.97;32.86
34297;BME280;20564;42.902;25.336;2023-03-25T11:48:53;96465.53;;;22.74;33.54
34297;BME280;20564;42.902;25.336;2023-03-25T11:51:28;96460.19;;;22.38;34.34
34297;BME280;20564;42.902;25.336;2023-03-25T11:54:02;96453.34;;;22.01;35.15
34297;BME280;20564;42.902;25.336;2023-03-25T11:56:40;96458.47;;;21.90;34.76
34297;BME280;20564;42.902;25.336;2023-03-25T11:59:22;96452.88;;;22.04;33.96
34297;BME280;20564;42.902;25.336;2023-03-25T12:07:46;96441.91;;;21.94;34.48
34297;BME280;20564;42.902;25.336;2023-03-25T12:10:57;96447.94;;;21.77;34.79
34297;BME280;20564;42.902;25.336;2023-03-25T12:13:34;96442.59;;;21.77;33.76
34297;BME280;20564;42.902;25.336;2023-03-25T12:16:16;96454.81;;;21.73;33.98
34297;BME280;20564;42.902;25.336;2023-03-25T12:24:36;96440.00;;;22.48;33.25
34297;BME280;20564;42.902;25.336;2023-03-25T12:33:14;96436.50;;;22.82;34.15
34297;BME280;20564;42.902;25.336;2023-03-25T12:41:19;96431.47;;;22.74;33.63
34297;BME280;20564;42.902;25.336;2023-03-25T12:43:58;96427.28;;;22.78;33.28
34297;BME280;20564;42.902;25.336;2023-03-25T12:51:58;96425.97;;;21.99;32.68
34297;BME280;20564;42.902;25.336;2023-03-25T13:00:22;96434.84;;;21.09;34.51
34297;BME280;20564;42.902;25.336;2023-03-25T13:09:20;96423.53;;;21.25;35.24
34297;BME280;20564;42.902;25.336;2023-03-25T13:12:04;96419.81;;;21.26;34.75
34297;BME280;20564;42.902;25.336;2023-03-25T13:15:00;96425.16;;;21.26;36.26
34297;BME280;20564;42.902;25.336;2023-03-25T13:17:33;96412.22;;;21.41;34.77
34297;BME280;20564;42.902;25.336;2023-03-25T13:20:05;96418.00;;;21.38;35.02
34297;BME280;20564;42.902;25.336;2023-03-25T13:22:48;96415.03;;;21.47;34.31
34297;BME280;20564;42.902;25.336;2023-03-25T13:25:25;96414.00;;;21.59;34.25
34297;BME280;20564;42.902;25.336;2023-03-25T13:27:57;96422.75;;;21.55;34.22
34297;BME280;20564;42.902;25.336;2023-03-25T13:30:38;96419.47;;;21.53;34.89
34297;BME280;20564;42.902;25.336;2023-03-25T13:33:14;96413.72;;;21.37;35.53
34297;BME280;20564;42.902;25.336;2023-03-25T13:35:51;96415.84;;;21.47;34.54
34297;BME280;20564;42.902;25.336;2023-03-25T13:38:30;96414.91;;;21.53;34.55
34297;BME280;20564;42.902;25.336;2023-03-25T13:46:48;96405.34;;;21.15;34.25
34297;BME280;20564;42.902;25.336;2023-03-25T13:49:24;96410.25;;;21.00;35.47
34297;BME280;20564;42.902;25.336;2023-03-25T13:51:53;96401.34;;;21.06;35.99
34297;BME280;20564;42.902;25.336;2023-03-25T13:54:44;96413.47;;;20.90;35.61
34297;BME280;20564;42.902;25.336;2023-03-25T13:57:25;96407.06;;;20.73;35.54
34297;BME280;20564;42.902;25.336;2023-03-25T14:00:10;96407.25;;;20.78;36.39
34297;BME280;20564;42.902;25.336;2023-03-25T14:03:04;96408.13;;;20.72;35.58
34297;BME280;20564;42.902;25.336;2023-03-25T14:05:59;96410.22;;;20.70;35.77
34297;BME280;20564;42.902;25.336;2023-03-25T14:08:58;96413.63;;;20.59;36.58
34297;BME280;20564;42.902;25.336;2023-03-25T14:12:05;96408.72;;;20.56;36.69
34297;BME280;20564;42.902;25.336;2023-03-25T14:14:41;96401.78;;;20.48;36.06
34297;BME280;20564;42.902;25.336;2023-03-25T14:17:11;96411.63;;;20.47;36.77
34297;BME280;20564;42.902;25.336;2023-03-25T14:19:56;96408.94;;;20.29;37.05
34297;BME280;20564;42.902;25.336;2023-03-25T14:22:30;96410.22;;;20.27;37.42
34297;BME280;20564;42.902;25.336;2023-03-25T14:24:58;96409.09;;;20.16;37.40
34297;BME280;20564;42.902;25.336;2023-03-25T14:27:31;96407.91;;;20.12;37.35
34297;BME280;20564;42.902;25.336;2023-03-25T14:30:05;96411.28;;;20.01;37.56
34297;BME280;20564;42.902;25.336;2023-03-25T14:32:39;96405.13;;;20.00;37.99
34297;BME280;20564;42.902;25.336;2023-03-25T14:43:25;96404.50;;;19.73;39.24
34297;BME280;20564;42.902;25.336;2023-03-25T14:56:50;96403.63;;;19.47;40.84
34297;BME280;20564;42.902;25.336;2023-03-25T14:59:26;96408.38;;;19.45;40.45
34297;BME280;20564;42.902;25.336;2023-03-25T15:02:05;96413.38;;;19.35;40.96
34297;BME280;20564;42.902;25.336;2023-03-25T15:04:41;96414.28;;;19.16;41.67
34297;BME280;20564;42.902;25.336;2023-03-25T15:07:17;96413.94;;;19.06;42.50
34297;BME280;20564;42.902;25.336;2023-03-25T15:09:51;96416.00;;;18.97;42.07
34297;BME280;20564;42.902;25.336;2023-03-25T15:12:24;96405.84;;;18.81;42.26
34297;BME280;20564;42.902;25.336;2023-03-25T15:15:24;96417.75;;;18.71;42.43
34297;BME280;20564;42.902;25.336;2023-03-25T15:18:03;96415.28;;;18.70;42.16
34297;BME280;20564;42.902;25.336;2023-03-25T15:21:09;96425.13;;;18.63;42.83
34297;BME280;20564;42.902;25.336;2023-03-25T15:24:46;96424.91;;;18.64;42.87
34297;BME280;20564;42.902;25.336;2023-03-25T15:33:33;96425.56;;;18.46;43.65
34297;BME280;20564;42.902;25.336;2023-03-25T15:54:53;96448.50;;;17.54;56.74
34297;BME280;20564;42.902;25.336;2023-03-25T15:57:29;96463.66;;;17.41;54.93
34297;BME280;20564;42.902;25.336;2023-03-25T16:02:57;96486.06;;;17.11;60.12
34297;BME280;20564;42.902;25.336;2023-03-25T16:05:36;96479.00;;;16.91;59.47
34297;BME280;20564;42.902;25.336;2023-03-25T16:08:18;96488.34;;;16.80;65.67
34297;BME280;20564;42.902;25.336;2023-03-25T16:10:49;96480.91;;;16.69;69.59
34297;BME280;20564;42.902;25.336;2023-03-25T16:13:16;96485.50;;;16.53;68.68
34297;BME280;20564;42.902;25.336;2023-03-25T16:15:59;96482.53;;;16.35;69.22
34297;BME280;20564;42.902;25.336;2023-03-25T16:18:27;96475.72;;;16.26;70.06
34297;BME280;20564;42.902;25.336;2023-03-25T16:21:02;96473.81;;;16.20;74.12
34297;BME280;20564;42.902;25.336;2023-03-25T16:23:29;96483.38;;;16.14;75.27
34297;BME280;20564;42.902;25.336;2023-03-25T16:26:03;96483.72;;;16.04;76.27
34297;BME280;20564;42.902;25.336;2023-03-25T16:28:40;96499.53;;;15.91;78.91